sensor_id;sensor_type;location;lat;lon;timestamp;P1;durP1;ratioP1;P2;durP2;ratioP2
12228;SDS011;6177;52.402;9.800;2023-07-22T00:01:04;5.37;;;4.93;;
12228;SDS011;6177;52.402;9.800;2023-07-22T00:03:55;5.57;;;5.20;;
12228;SDS011;6177;52.402;9.800;2023-07-22T00:06:46;5.80;;;5.40;;
12228;SDS011;6177;52.402;9.800;2023-07-22T00:09:37;5.60;;;5.30;;
12228;SDS011;6177;52.402;9.800;2023-07-22T00:12:29;5.17;;;4.87;;
12228;SDS011;6177;52.402;9.800;2023-07-22T00:15:21;5.77;;;5.27;;
12228;SDS011;6177;52.402;9.800;2023-07-22T00:18:14;5.87;;;5.47;;
12228;SDS011;6177;52.402;9.800;2023-07-22T00:21:06;6.17;;;5.67;;
12228;SDS011;6177;52.402;9.800;2023-07-22T00:23:59;6.30;;;5.80;;
12228;SDS011;6177;52.402;9.800;2023-07-22T00:26:50;6.87;;;5.93;;
12228;SDS011;6177;52.402;9.800;2023-07-22T00:29:41;5.90;;;5.40;;
12228;SDS011;6177;52.402;9.800;2023-07-22T00:32:32;6.57;;;5.97;;
12228;SDS011;6177;52.402;9.800;2023-07-22T00:35:23;6.67;;;6.17;;
12228;SDS011;6177;52.402;9.800;2023-07-22T00:38:14;6.37;;;5.87;;
12228;SDS011;6177;52.402;9.800;2023-07-22T00:41:04;6.73;;;6.20;;
12228;SDS011;6177;52.402;9.800;2023-07-22T00:43:57;6.10;;;5.60;;
12228;SDS011;6177;52.402;9.800;2023-07-22T00:46:48;6.67;;;6.00;;
12228;SDS011;6177;52.402;9.800;2023-07-22T00:49:39;6.50;;;6.10;;
12228;SDS011;6177;52.402;9.800;2023-07-22T00:52:30;5.70;;;5.40;;
12228;SDS011;6177;52.402;9.800;2023-07-22T00:55:21;5.70;;;5.30;;
12228;SDS011;6177;52.402;9.800;2023-07-22T00:58:12;6.97;;;6.20;;
12228;SDS011;6177;52.402;9.800;2023-07-22T01:01:03;5.90;;;5.50;;
12228;SDS011;6177;52.402;9.800;2023-07-22T01:03:54;6.53;;;5.70;;
12228;SDS011;6177;52.402;9.800;2023-07-22T01:06:45;6.20;;;5.70;;
12228;SDS011;6177;52.402;9.800;2023-07-22T01:09:40;6.13;;;5.63;;
12228;SDS011;6177;52.402;9.800;2023-07-22T01:12:31;6.17;;;5.60;;
12228;SDS011;6177;52.402;9.800;2023-07-22T01:15:22;5.70;;;5.17;;
12228;SDS011;6177;52.402;9.800;2023-07-22T01:18:14;6.20;;;5.53;;
12228;SDS011;6177;52.402;9.800;2023-07-22T01:21:05;7.20;;;6.60;;
12228;SDS011;6177;52.402;9.800;2023-07-22T01:23:56;6.33;;;5.93;;
12228;SDS011;6177;52.402;9.800;2023-07-22T01:26:47;6.53;;;5.93;;
12228;SDS011;6177;52.402;9.800;2023-07-22T01:29:38;6.17;;;5.77;;
12228;SDS011;6177;52.402;9.800;2023-07-22T01:32:29;6.73;;;6.07;;
12228;SDS011;6177;52.402;9.800;2023-07-22T01:35:20;6.07;;;5.57;;
12228;SDS011;6177;52.402;9.800;2023-07-22T01:38:11;6.60;;;6.00;;
12228;SDS011;6177;52.402;9.800;2023-07-22T01:41:02;6.40;;;5.80;;
12228;SDS011;6177;52.402;9.800;2023-07-22T01:43:53;7.07;;;6.13;;
12228;SDS011;6177;52.402;9.800;2023-07-22T01:46:44;6.70;;;6.00;;
12228;SDS011;6177;52.402;9.800;2023-07-22T01:49:35;6.33;;;5.83;;
12228;SDS011;6177;52.402;9.800;2023-07-22T01:52:26;6.23;;;5.70;;
12228;SDS011;6177;52.402;9.800;2023-07-22T01:55:17;7.60;;;6.80;;
12228;SDS011;6177;52.402;9.800;2023-07-22T01:58:08;6.87;;;5.87;;
12228;SDS011;6177;52.402;9.800;2023-07-22T02:00:59;5.90;;;5.50;;
12228;SDS011;6177;52.402;9.800;2023-07-22T02:03:50;6.77;;;5.77;;
12228;SDS011;6177;52.402;9.800;2023-07-22T02:06:41;7.53;;;6.10;;
12228;SDS011;6177;52.402;9.800;2023-07-22T02:09:32;6.23;;;5.70;;
12228;SDS011;6177;52.402;9.800;2023-07-22T02:12:23;6.70;;;6.03;;
12228;SDS011;6177;52.402;9.800;2023-07-22T02:15:14;6.13;;;5.30;;
12228;SDS011;6177;52.402;9.800;2023-07-22T02:18:06;6.40;;;5.80;;
12228;SDS011;6177;52.402;9.800;2023-07-22T02:20:57;6.33;;;5.77;;
12228;SDS011;6177;52.402;9.800;2023-07-22T02:23:48;6.47;;;5.80;;
12228;SDS011;6177;52.402;9.800;2023-07-22T02:26:39;6.53;;;5.93;;
12228;SDS011;6177;52.402;9.800;2023-07-22T02:29:31;5.93;;;5.33;;
12228;SDS011;6177;52.402;9.800;2023-07-22T02:32:21;6.27;;;5.27;;
12228;SDS011;6177;52.402;9.800;2023-07-22T02:35:12;6.70;;;5.60;;
12228;SDS011;6177;52.402;9.800;2023-07-22T02:38:03;6.43;;;5.53;;
12228;SDS011;6177;52.402;9.800;2023-07-22T02:40:54;5.47;;;4.97;;
12228;SDS011;6177;52.402;9.800;2023-07-22T02:43:50;6.10;;;5.47;;
12228;SDS011;6177;52.402;9.800;2023-07-22T02:46:40;8.23;;;6.17;;
12228;SDS011;6177;52.402;9.800;2023-07-22T02:49:31;6.80;;;5.50;;
12228;SDS011;6177;52.402;9.800;2023-07-22T02:52:22;6.30;;;5.80;;
12228;SDS011;6177;52.402;9.800;2023-07-22T02:55:14;7.30;;;5.60;;
12228;SDS011;6177;52.402;9.800;2023-07-22T02:58:05;6.93;;;5.87;;
12228;SDS011;6177;52.402;9.800;2023-07-22T03:00:56;7.13;;;5.63;;
12228;SDS011;6177;52.402;9.800;2023-07-22T03:03:49;5.63;;;4.67;;
12228;SDS011;6177;52.402;9.800;2023-07-22T03:06:39;6.60;;;5.97;;
12228;SDS011;6177;52.402;9.800;2023-07-22T03:09:30;5.67;;;5.23;;
12228;SDS011;6177;52.402;9.800;2023-07-22T03:12:20;6.37;;;5.30;;
12228;SDS011;6177;52.402;9.800;2023-07-22T03:15:12;6.20;;;5.67;;
12228;SDS011;6177;52.402;9.800;2023-07-22T03:18:03;6.37;;;5.87;;
12228;SDS011;6177;52.402;9.800;2023-07-22T03:20:55;9.10;;;6.20;;
12228;SDS011;6177;52.402;9.800;2023-07-22T03:23:46;5.70;;;5.30;;
12228;SDS011;6177;52.402;9.800;2023-07-22T03:26:37;6.20;;;5.60;;
12228;SDS011;6177;52.402;9.800;2023-07-22T03:29:27;7.07;;;6.40;;
12228;SDS011;6177;52.402;9.800;2023-07-22T03:32:18;6.27;;;5.60;;
12228;SDS011;6177;52.402;9.800;2023-07-22T03:35:09;7.97;;;7.13;;
12228;SDS011;6177;52.402;9.800;2023-07-22T03:38:03;9.07;;;5.70;;
12228;SDS011;6177;52.402;9.800;2023-07-22T03:40:55;6.90;;;6.10;;
12228;SDS011;6177;52.402;9.800;2023-07-22T03:43:46;7.97;;;6.40;;
12228;SDS011;6177;52.402;9.800;2023-07-22T03:46:37;8.47;;;6.30;;
12228;SDS011;6177;52.402;9.800;2023-07-22T03:49:28;6.90;;;6.27;;
12228;SDS011;6177;52.402;9.800;2023-07-22T03:52:19;6.37;;;5.87;;
12228;SDS011;6177;52.402;9.800;2023-07-22T03:55:10;6.73;;;6.00;;
12228;SDS011;6177;52.402;9.800;2023-07-22T03:58:01;6.20;;;5.60;;
12228;SDS011;6177;52.402;9.800;2023-07-22T04:00:52;6.87;;;6.27;;
12228;SDS011;6177;52.402;9.800;2023-07-22T04:03:43;6.83;;;5.60;;
12228;SDS011;6177;52.402;9.800;2023-07-22T04:06:33;9.20;;;5.90;;
12228;SDS011;6177;52.402;9.800;2023-07-22T04:09:25;6.87;;;6.13;;
12228;SDS011;6177;52.402;9.800;2023-07-22T04:12:17;7.00;;;5.87;;
12228;SDS011;6177;52.402;9.800;2023-07-22T04:15:08;7.30;;;6.00;;
12228;SDS011;6177;52.402;9.800;2023-07-22T04:17:59;6.50;;;5.90;;
12228;SDS011;6177;52.402;9.800;2023-07-22T04:20:54;6.70;;;6.10;;
12228;SDS011;6177;52.402;9.800;2023-07-22T04:23:46;6.30;;;5.70;;
12228;SDS011;6177;52.402;9.800;2023-07-22T04:26:37;6.17;;;5.67;;
12228;SDS011;6177;52.402;9.800;2023-07-22T04:29:28;6.40;;;5.80;;
12228;SDS011;6177;52.402;9.800;2023-07-22T04:32:19;6.67;;;6.07;;
12228;SDS011;6177;52.402;9.800;2023-07-22T04:35:10;6.57;;;5.97;;
12228;SDS011;6177;52.402;9.800;2023-07-22T04:38:01;6.97;;;6.30;;
12228;SDS011;6177;52.402;9.800;2023-07-22T04:40:53;6.30;;;5.80;;
12228;SDS011;6177;52.402;9.800;2023-07-22T04:43:44;7.50;;;6.47;;
12228;SDS011;6177;52.402;9.800;2023-07-22T04:46:35;6.90;;;6.37;;
12228;SDS011;6177;52.402;9.800;2023-07-22T04:49:26;8.53;;;6.13;;
12228;SDS011;6177;52.402;9.800;2023-07-22T04:52:17;7.27;;;5.77;;
12228;SDS011;6177;52.402;9.800;2023-07-22T04:55:08;7.13;;;5.90;;
12228;SDS011;6177;52.402;9.800;2023-07-22T04:57:59;7.60;;;6.60;;
12228;SDS011;6177;52.402;9.800;2023-07-22T05:00:50;7.10;;;6.40;;
12228;SDS011;6177;52.402;9.800;2023-07-22T05:03:41;6.73;;;6.13;;
12228;SDS011;6177;52.402;9.800;2023-07-22T05:06:33;6.70;;;6.00;;
12228;SDS011;6177;52.402;9.800;2023-07-22T05:09:24;7.37;;;6.60;;
12228;SDS011;6177;52.402;9.800;2023-07-22T05:12:15;7.53;;;6.17;;
12228;SDS011;6177;52.402;9.800;2023-07-22T05:15:06;6.93;;;6.20;;
12228;SDS011;6177;52.402;9.800;2023-07-22T05:17:57;7.53;;;6.10;;
12228;SDS011;6177;52.402;9.800;2023-07-22T05:20:48;6.70;;;5.97;;
12228;SDS011;6177;52.402;9.800;2023-07-22T05:23:39;6.63;;;6.10;;
12228;SDS011;6177;52.402;9.800;2023-07-22T05:26:30;6.57;;;6.07;;
12228;SDS011;6177;52.402;9.800;2023-07-22T05:29:21;7.37;;;6.03;;
12228;SDS011;6177;52.402;9.800;2023-07-22T05:32:11;6.60;;;6.00;;
12228;SDS011;6177;52.402;9.800;2023-07-22T05:35:02;7.17;;;6.53;;
12228;SDS011;6177;52.402;9.800;2023-07-22T05:37:55;6.93;;;6.33;;
12228;SDS011;6177;52.402;9.800;2023-07-22T05:40:46;7.18;;;6.57;;
12228;SDS011;6177;52.402;9.800;2023-07-22T05:43:37;7.30;;;6.70;;
12228;SDS011;6177;52.402;9.800;2023-07-22T05:46:28;6.40;;;5.90;;
12228;SDS011;6177;52.402;9.800;2023-07-22T05:49:19;6.17;;;5.73;;
12228;SDS011;6177;52.402;9.800;2023-07-22T05:52:10;7.10;;;6.30;;
12228;SDS011;6177;52.402;9.800;2023-07-22T05:55:01;8.03;;;6.33;;
12228;SDS011;6177;52.402;9.800;2023-07-22T05:57:52;7.47;;;6.40;;
12228;SDS011;6177;52.402;9.800;2023-07-22T06:00:44;6.93;;;6.37;;
12228;SDS011;6177;52.402;9.800;2023-07-22T06:03:34;6.55;;;5.95;;
12228;SDS011;6177;52.402;9.800;2023-07-22T06:06:25;7.03;;;6.32;;
12228;SDS011;6177;52.402;9.800;2023-07-22T06:09:16;6.53;;;5.93;;
12228;SDS011;6177;52.402;9.800;2023-07-22T06:12:07;6.55;;;6.00;;
12228;SDS011;6177;52.402;9.800;2023-07-22T06:14:58;6.50;;;6.00;;
12228;SDS011;6177;52.402;9.800;2023-07-22T06:17:49;6.95;;;6.35;;
12228;SDS011;6177;52.402;9.800;2023-07-22T06:20:40;7.03;;;6.28;;
12228;SDS011;6177;52.402;9.800;2023-07-22T06:23:31;6.93;;;6.32;;
12228;SDS011;6177;52.402;9.800;2023-07-22T06:26:22;6.82;;;6.22;;
12228;SDS011;6177;52.402;9.800;2023-07-22T06:29:13;7.20;;;6.47;;
12228;SDS011;6177;52.402;9.800;2023-07-22T06:32:04;8.07;;;5.55;;
12228;SDS011;6177;52.402;9.800;2023-07-22T06:34:56;6.82;;;6.32;;
12228;SDS011;6177;52.402;9.800;2023-07-22T06:37:47;6.70;;;6.00;;
12228;SDS011;6177;52.402;9.800;2023-07-22T06:40:38;6.38;;;5.82;;
12228;SDS011;6177;52.402;9.800;2023-07-22T06:43:29;6.97;;;6.28;;
12228;SDS011;6177;52.402;9.800;2023-07-22T06:46:20;6.05;;;5.45;;
12228;SDS011;6177;52.402;9.800;2023-07-22T06:49:11;6.83;;;5.83;;
12228;SDS011;6177;52.402;9.800;2023-07-22T06:52:02;5.95;;;5.63;;
12228;SDS011;6177;52.402;9.800;2023-07-22T06:54:53;6.40;;;5.80;;
12228;SDS011;6177;52.402;9.800;2023-07-22T06:57:44;7.97;;;6.18;;
12228;SDS011;6177;52.402;9.800;2023-07-22T07:00:36;6.43;;;5.87;;
12228;SDS011;6177;52.402;9.800;2023-07-22T07:03:26;6.60;;;6.03;;
12228;SDS011;6177;52.402;9.800;2023-07-22T07:06:17;6.50;;;5.90;;
12228;SDS011;6177;52.402;9.800;2023-07-22T07:09:08;6.20;;;5.70;;
12228;SDS011;6177;52.402;9.800;2023-07-22T07:11:59;6.80;;;6.30;;
12228;SDS011;6177;52.402;9.800;2023-07-22T07:14:50;7.20;;;6.30;;
12228;SDS011;6177;52.402;9.800;2023-07-22T07:17:41;6.18;;;5.78;;
12228;SDS011;6177;52.402;9.800;2023-07-22T07:20:32;7.53;;;6.30;;
12228;SDS011;6177;52.402;9.800;2023-07-22T07:23:23;6.18;;;5.70;;
12228;SDS011;6177;52.402;9.800;2023-07-22T07:26:14;6.75;;;6.03;;
12228;SDS011;6177;52.402;9.800;2023-07-22T07:29:05;6.85;;;6.32;;
12228;SDS011;6177;52.402;9.800;2023-07-22T07:31:56;6.40;;;5.80;;
12228;SDS011;6177;52.402;9.800;2023-07-22T07:34:47;6.18;;;5.70;;
12228;SDS011;6177;52.402;9.800;2023-07-22T07:37:38;6.15;;;5.65;;
12228;SDS011;6177;52.402;9.800;2023-07-22T07:40:29;6.18;;;5.78;;
12228;SDS011;6177;52.402;9.800;2023-07-22T07:43:22;6.07;;;5.57;;
12228;SDS011;6177;52.402;9.800;2023-07-22T07:46:14;6.10;;;5.55;;
12228;SDS011;6177;52.402;9.800;2023-07-22T07:49:07;6.05;;;5.45;;
12228;SDS011;6177;52.402;9.800;2023-07-22T07:51:58;6.60;;;5.75;;
12228;SDS011;6177;52.402;9.800;2023-07-22T07:54:49;5.47;;;5.13;;
12228;SDS011;6177;52.402;9.800;2023-07-22T07:57:40;5.68;;;5.28;;
12228;SDS011;6177;52.402;9.800;2023-07-22T08:00:31;6.03;;;5.35;;
12228;SDS011;6177;52.402;9.800;2023-07-22T08:03:23;6.00;;;5.40;;
12228;SDS011;6177;52.402;9.800;2023-07-22T08:06:13;5.65;;;5.30;;
12228;SDS011;6177;52.402;9.800;2023-07-22T08:09:05;6.22;;;5.82;;
12228;SDS011;6177;52.402;9.800;2023-07-22T08:11:55;5.82;;;5.43;;
12228;SDS011;6177;52.402;9.800;2023-07-22T08:14:47;6.20;;;5.80;;
12228;SDS011;6177;52.402;9.800;2023-07-22T08:17:38;5.90;;;5.40;;
12228;SDS011;6177;52.402;9.800;2023-07-22T08:20:28;6.93;;;6.10;;
12228;SDS011;6177;52.402;9.800;2023-07-22T08:23:19;5.95;;;5.63;;
12228;SDS011;6177;52.402;9.800;2023-07-22T08:26:10;6.13;;;5.63;;
12228;SDS011;6177;52.402;9.800;2023-07-22T08:29:01;5.80;;;5.40;;
12228;SDS011;6177;52.402;9.800;2023-07-22T08:31:52;5.80;;;5.30;;
12228;SDS011;6177;52.402;9.800;2023-07-22T08:34:43;6.00;;;5.40;;
12228;SDS011;6177;52.402;9.800;2023-07-22T08:37:34;5.80;;;5.30;;
12228;SDS011;6177;52.402;9.800;2023-07-22T08:40:25;6.03;;;5.50;;
12228;SDS011;6177;52.402;9.800;2023-07-22T08:43:19;5.75;;;5.35;;
12228;SDS011;6177;52.402;9.800;2023-07-22T08:46:10;5.85;;;5.45;;
12228;SDS011;6177;52.402;9.800;2023-07-22T08:49:03;5.60;;;5.20;;
12228;SDS011;6177;52.402;9.800;2023-07-22T08:51:55;5.25;;;4.90;;
12228;SDS011;6177;52.402;9.800;2023-07-22T08:54:48;5.63;;;5.28;;
12228;SDS011;6177;52.402;9.800;2023-07-22T08:57:39;5.38;;;4.95;;
12228;SDS011;6177;52.402;9.800;2023-07-22T09:00:29;5.70;;;5.20;;
12228;SDS011;6177;52.402;9.800;2023-07-22T09:03:20;5.85;;;5.28;;
12228;SDS011;6177;52.402;9.800;2023-07-22T09:06:11;5.85;;;5.22;;
12228;SDS011;6177;52.402;9.800;2023-07-22T09:09:02;6.43;;;6.03;;
12228;SDS011;6177;52.402;9.800;2023-07-22T09:11:57;6.90;;;6.50;;
12228;SDS011;6177;52.402;9.800;2023-07-22T09:14:49;6.68;;;6.28;;
12228;SDS011;6177;52.402;9.800;2023-07-22T09:17:40;7.03;;;6.55;;
12228;SDS011;6177;52.402;9.800;2023-07-22T09:20:30;7.65;;;7.05;;
12228;SDS011;6177;52.402;9.800;2023-07-22T09:23:34;7.70;;;7.20;;
12228;SDS011;6177;52.402;9.800;2023-07-22T09:26:25;7.10;;;6.70;;
12228;SDS011;6177;52.402;9.800;2023-07-22T09:29:17;7.22;;;6.82;;
12228;SDS011;6177;52.402;9.800;2023-07-22T09:32:08;6.90;;;6.40;;
12228;SDS011;6177;52.402;9.800;2023-07-22T09:35:00;6.45;;;6.05;;
12228;SDS011;6177;52.402;9.800;2023-07-22T09:37:50;7.60;;;7.00;;
12228;SDS011;6177;52.402;9.800;2023-07-22T09:40:43;7.65;;;7.10;;
12228;SDS011;6177;52.402;9.800;2023-07-22T09:43:38;6.53;;;6.15;;
12228;SDS011;6177;52.402;9.800;2023-07-22T09:46:32;6.22;;;5.80;;
12228;SDS011;6177;52.402;9.800;2023-07-22T09:49:25;6.70;;;6.30;;
12228;SDS011;6177;52.402;9.800;2023-07-22T09:52:17;6.22;;;5.68;;
12228;SDS011;6177;52.402;9.800;2023-07-22T09:55:08;7.75;;;7.20;;
12228;SDS011;6177;52.402;9.800;2023-07-22T09:58:00;6.30;;;5.93;;
12228;SDS011;6177;52.402;9.800;2023-07-22T10:00:59;6.28;;;5.88;;
12228;SDS011;6177;52.402;9.800;2023-07-22T10:03:52;17.65;;;16.05;;
12228;SDS011;6177;52.402;9.800;2023-07-22T10:06:45;6.63;;;6.15;;
12228;SDS011;6177;52.402;9.800;2023-07-22T10:09:36;6.82;;;6.30;;
12228;SDS011;6177;52.402;9.800;2023-07-22T10:12:27;6.50;;;5.97;;
12228;SDS011;6177;52.402;9.800;2023-07-22T10:15:18;5.97;;;5.57;;
12228;SDS011;6177;52.402;9.800;2023-07-22T10:18:09;5.85;;;5.55;;
12228;SDS011;6177;52.402;9.800;2023-07-22T10:21:00;6.10;;;5.60;;
12228;SDS011;6177;52.402;9.800;2023-07-22T10:23:52;5.43;;;5.13;;
12228;SDS011;6177;52.402;9.800;2023-07-22T10:26:42;5.20;;;4.75;;
12228;SDS011;6177;52.402;9.800;2023-07-22T10:29:34;5.05;;;4.68;;
12228;SDS011;6177;52.402;9.800;2023-07-22T10:32:31;5.15;;;4.85;;
12228;SDS011;6177;52.402;9.800;2023-07-22T10:35:34;5.00;;;4.80;;
12228;SDS011;6177;52.402;9.800;2023-07-22T10:38:35;4.70;;;4.50;;
12228;SDS011;6177;52.402;9.800;2023-07-22T10:41:26;4.28;;;4.07;;
12228;SDS011;6177;52.402;9.800;2023-07-22T10:44:17;4.72;;;4.43;;
12228;SDS011;6177;52.402;9.800;2023-07-22T10:47:09;5.82;;;5.35;;
12228;SDS011;6177;52.402;9.800;2023-07-22T10:50:07;5.18;;;4.88;;
12228;SDS011;6177;52.402;9.800;2023-07-22T10:52:59;4.72;;;4.53;;
12228;SDS011;6177;52.402;9.800;2023-07-22T11:01:43;4.82;;;4.57;;
12228;SDS011;6177;52.402;9.800;2023-07-22T11:04:35;4.50;;;4.30;;
12228;SDS011;6177;52.402;9.800;2023-07-22T11:07:34;5.03;;;4.63;;
12228;SDS011;6177;52.402;9.800;2023-07-22T11:10:33;4.35;;;4.05;;
12228;SDS011;6177;52.402;9.800;2023-07-22T11:13:27;5.20;;;4.80;;
12228;SDS011;6177;52.402;9.800;2023-07-22T11:16:18;5.10;;;4.50;;
12228;SDS011;6177;52.402;9.800;2023-07-22T11:19:12;4.75;;;4.55;;
12228;SDS011;6177;52.402;9.800;2023-07-22T11:22:03;3.78;;;3.63;;
12228;SDS011;6177;52.402;9.800;2023-07-22T11:24:55;4.72;;;4.43;;
12228;SDS011;6177;52.402;9.800;2023-07-22T11:27:48;4.50;;;4.30;;
12228;SDS011;6177;52.402;9.800;2023-07-22T11:30:39;3.90;;;3.70;;
12228;SDS011;6177;52.402;9.800;2023-07-22T11:33:37;4.07;;;3.88;;
12228;SDS011;6177;52.402;9.800;2023-07-22T11:36:29;3.83;;;3.60;;
12228;SDS011;6177;52.402;9.800;2023-07-22T11:39:21;3.63;;;3.42;;
12228;SDS011;6177;52.402;9.800;2023-07-22T11:42:13;4.20;;;4.03;;
12228;SDS011;6177;52.402;9.800;2023-07-22T11:45:04;3.53;;;3.33;;
12228;SDS011;6177;52.402;9.800;2023-07-22T11:47:56;3.40;;;3.22;;
12228;SDS011;6177;52.402;9.800;2023-07-22T11:50:47;3.40;;;3.30;;
12228;SDS011;6177;52.402;9.800;2023-07-22T11:53:38;3.38;;;3.15;;
12228;SDS011;6177;52.402;9.800;2023-07-22T11:56:28;3.90;;;3.60;;
12228;SDS011;6177;52.402;9.800;2023-07-22T11:59:33;3.90;;;3.65;;
12228;SDS011;6177;52.402;9.800;2023-07-22T12:02:27;4.40;;;4.07;;
12228;SDS011;6177;52.402;9.800;2023-07-22T12:05:22;4.28;;;3.95;;
12228;SDS011;6177;52.402;9.800;2023-07-22T12:08:14;3.97;;;3.78;;
12228;SDS011;6177;52.402;9.800;2023-07-22T12:11:05;3.88;;;3.67;;
12228;SDS011;6177;52.402;9.800;2023-07-22T12:14:09;4.00;;;3.83;;
12228;SDS011;6177;52.402;9.800;2023-07-22T12:17:01;5.05;;;4.75;;
12228;SDS011;6177;52.402;9.800;2023-07-22T12:19:52;4.05;;;3.53;;
12228;SDS011;6177;52.402;9.800;2023-07-22T12:22:43;5.20;;;4.70;;
12228;SDS011;6177;52.402;9.800;2023-07-22T12:25:34;3.90;;;3.70;;
12228;SDS011;6177;52.402;9.800;2023-07-22T12:28:25;4.70;;;4.40;;
12228;SDS011;6177;52.402;9.800;2023-07-22T12:31:17;4.57;;;4.28;;
12228;SDS011;6177;52.402;9.800;2023-07-22T12:34:08;5.15;;;4.55;;
12228;SDS011;6177;52.402;9.800;2023-07-22T12:36:58;4.43;;;4.13;;
12228;SDS011;6177;52.402;9.800;2023-07-22T12:39:50;4.50;;;4.20;;
12228;SDS011;6177;52.402;9.800;2023-07-22T12:42:41;4.18;;;3.97;;
12228;SDS011;6177;52.402;9.800;2023-07-22T12:45:32;4.80;;;4.45;;
12228;SDS011;6177;52.402;9.800;2023-07-22T12:48:22;4.35;;;4.15;;
12228;SDS011;6177;52.402;9.800;2023-07-22T12:51:14;4.30;;;4.10;;
12228;SDS011;6177;52.402;9.800;2023-07-22T12:54:05;4.13;;;3.92;;
12228;SDS011;6177;52.402;9.800;2023-07-22T12:56:56;4.47;;;4.28;;
12228;SDS011;6177;52.402;9.800;2023-07-22T12:59:47;5.22;;;4.50;;
12228;SDS011;6177;52.402;9.800;2023-07-22T13:02:38;4.63;;;4.30;;
12228;SDS011;6177;52.402;9.800;2023-07-22T13:05:29;4.60;;;4.30;;
12228;SDS011;6177;52.402;9.800;2023-07-22T13:08:20;4.60;;;4.40;;
12228;SDS011;6177;52.402;9.800;2023-07-22T13:11:10;4.20;;;4.00;;
12228;SDS011;6177;52.402;9.800;2023-07-22T13:14:01;3.92;;;3.72;;
12228;SDS011;6177;52.402;9.800;2023-07-22T13:16:53;4.35;;;4.05;;
12228;SDS011;6177;52.402;9.800;2023-07-22T13:19:43;4.53;;;4.13;;
12228;SDS011;6177;52.402;9.800;2023-07-22T13:22:35;5.32;;;3.80;;
12228;SDS011;6177;52.402;9.800;2023-07-22T13:25:27;11.27;;;5.28;;
12228;SDS011;6177;52.402;9.800;2023-07-22T13:28:18;5.20;;;4.90;;
12228;SDS011;6177;52.402;9.800;2023-07-22T13:31:08;4.53;;;4.32;;
12228;SDS011;6177;52.402;9.800;2023-07-22T13:34:00;4.50;;;4.22;;
12228;SDS011;6177;52.402;9.800;2023-07-22T13:36:51;4.18;;;3.88;;
12228;SDS011;6177;52.402;9.800;2023-07-22T13:39:41;4.18;;;4.07;;
12228;SDS011;6177;52.402;9.800;2023-07-22T13:42:33;5.00;;;4.70;;
12228;SDS011;6177;52.402;9.800;2023-07-22T13:45:24;4.18;;;3.97;;
12228;SDS011;6177;52.402;9.800;2023-07-22T13:48:14;4.47;;;4.22;;
12228;SDS011;6177;52.402;9.800;2023-07-22T13:51:05;4.53;;;4.20;;
12228;SDS011;6177;52.402;9.800;2023-07-22T13:53:57;4.47;;;4.18;;
12228;SDS011;6177;52.402;9.800;2023-07-22T13:56:48;4.70;;;4.40;;
12228;SDS011;6177;52.402;9.800;2023-07-22T13:59:39;4.65;;;4.43;;
12228;SDS011;6177;52.402;9.800;2023-07-22T14:02:30;4.20;;;4.10;;
12228;SDS011;6177;52.402;9.800;2023-07-22T14:05:22;4.35;;;4.15;;
12228;SDS011;6177;52.402;9.800;2023-07-22T14:08:13;4.80;;;4.47;;
12228;SDS011;6177;52.402;9.800;2023-07-22T14:11:03;4.57;;;4.38;;
12228;SDS011;6177;52.402;9.800;2023-07-22T14:13:55;4.43;;;4.20;;
12228;SDS011;6177;52.402;9.800;2023-07-22T14:16:45;5.07;;;4.78;;
12228;SDS011;6177;52.402;9.800;2023-07-22T14:19:37;4.78;;;4.47;;
12228;SDS011;6177;52.402;9.800;2023-07-22T14:22:27;4.63;;;4.40;;
12228;SDS011;6177;52.402;9.800;2023-07-22T14:25:18;4.05;;;3.85;;
12228;SDS011;6177;52.402;9.800;2023-07-22T14:28:10;4.35;;;4.18;;
12228;SDS011;6177;52.402;9.800;2023-07-22T14:31:01;4.03;;;3.90;;
12228;SDS011;6177;52.402;9.800;2023-07-22T14:33:51;4.47;;;4.25;;
12228;SDS011;6177;52.402;9.800;2023-07-22T14:36:43;4.32;;;4.13;;
12228;SDS011;6177;52.402;9.800;2023-07-22T14:39:34;4.65;;;4.38;;
12228;SDS011;6177;52.402;9.800;2023-07-22T14:42:24;4.60;;;4.40;;
12228;SDS011;6177;52.402;9.800;2023-07-22T14:45:15;4.22;;;3.92;;
12228;SDS011;6177;52.402;9.800;2023-07-22T14:48:06;4.43;;;4.22;;
12228;SDS011;6177;52.402;9.800;2023-07-22T14:50:58;4.65;;;4.30;;
12228;SDS011;6177;52.402;9.800;2023-07-22T14:53:49;4.45;;;4.25;;
12228;SDS011;6177;52.402;9.800;2023-07-22T14:56:39;4.28;;;4.07;;
12228;SDS011;6177;52.402;9.800;2023-07-22T14:59:30;4.18;;;3.90;;
12228;SDS011;6177;52.402;9.800;2023-07-22T15:02:22;3.95;;;3.78;;
12228;SDS011;6177;52.402;9.800;2023-07-22T15:05:13;4.82;;;4.53;;
12228;SDS011;6177;52.402;9.800;2023-07-22T15:08:04;4.10;;;3.90;;
12228;SDS011;6177;52.402;9.800;2023-07-22T15:10:55;4.63;;;4.43;;
12228;SDS011;6177;52.402;9.800;2023-07-22T15:13:46;4.55;;;4.25;;
12228;SDS011;6177;52.402;9.800;2023-07-22T15:16:37;4.07;;;3.88;;
12228;SDS011;6177;52.402;9.800;2023-07-22T15:19:29;3.83;;;3.63;;
12228;SDS011;6177;52.402;9.800;2023-07-22T15:22:20;3.35;;;3.25;;
12228;SDS011;6177;52.402;9.800;2023-07-22T15:25:11;3.78;;;3.58;;
12228;SDS011;6177;52.402;9.800;2023-07-22T15:28:02;3.85;;;3.55;;
12228;SDS011;6177;52.402;9.800;2023-07-22T15:30:53;3.30;;;3.20;;
12228;SDS011;6177;52.402;9.800;2023-07-22T15:33:45;3.95;;;3.70;;
12228;SDS011;6177;52.402;9.800;2023-07-22T15:36:35;3.80;;;3.70;;
12228;SDS011;6177;52.402;9.800;2023-07-22T15:39:27;3.83;;;3.72;;
12228;SDS011;6177;52.402;9.800;2023-07-22T15:42:18;3.78;;;3.58;;
12228;SDS011;6177;52.402;9.800;2023-07-22T15:45:09;3.55;;;3.45;;
12228;SDS011;6177;52.402;9.800;2023-07-22T15:47:59;3.80;;;3.70;;
12228;SDS011;6177;52.402;9.800;2023-07-22T15:50:51;4.00;;;3.65;;
12228;SDS011;6177;52.402;9.800;2023-07-22T15:53:42;4.00;;;3.70;;
12228;SDS011;6177;52.402;9.800;2023-07-22T15:56:33;3.63;;;3.42;;
12228;SDS011;6177;52.402;9.800;2023-07-22T15:59:24;3.85;;;3.67;;
12228;SDS011;6177;52.402;9.800;2023-07-22T16:02:15;3.70;;;3.60;;
12228;SDS011;6177;52.402;9.800;2023-07-22T16:05:05;3.72;;;3.63;;
12228;SDS011;6177;52.402;9.800;2023-07-22T16:07:56;3.28;;;3.17;;
12228;SDS011;6177;52.402;9.800;2023-07-22T16:10:48;3.58;;;3.40;;
12228;SDS011;6177;52.402;9.800;2023-07-22T16:13:39;4.13;;;3.88;;
12228;SDS011;6177;52.402;9.800;2023-07-22T16:16:30;3.90;;;3.70;;
12228;SDS011;6177;52.402;9.800;2023-07-22T16:19:21;3.30;;;3.20;;
12228;SDS011;6177;52.402;9.800;2023-07-22T16:22:11;3.70;;;3.47;;
12228;SDS011;6177;52.402;9.800;2023-07-22T16:25:02;3.85;;;3.63;;
12228;SDS011;6177;52.402;9.800;2023-07-22T16:27:52;3.55;;;3.45;;
12228;SDS011;6177;52.402;9.800;2023-07-22T16:30:43;3.40;;;3.30;;
12228;SDS011;6177;52.402;9.800;2023-07-22T16:33:34;4.00;;;3.72;;
12228;SDS011;6177;52.402;9.800;2023-07-22T16:36:25;3.80;;;3.63;;
12228;SDS011;6177;52.402;9.800;2023-07-22T16:39:16;4.00;;;3.80;;
12228;SDS011;6177;52.402;9.800;2023-07-22T16:42:08;3.67;;;3.58;;
12228;SDS011;6177;52.402;9.800;2023-07-22T16:44:58;3.90;;;3.70;;
12228;SDS011;6177;52.402;9.800;2023-07-22T16:47:50;4.00;;;3.80;;
12228;SDS011;6177;52.402;9.800;2023-07-22T16:50:41;3.83;;;3.53;;
12228;SDS011;6177;52.402;9.800;2023-07-22T16:53:32;3.70;;;3.50;;
12228;SDS011;6177;52.402;9.800;2023-07-22T16:56:23;4.07;;;3.88;;
12228;SDS011;6177;52.402;9.800;2023-07-22T16:59:14;3.88;;;3.67;;
12228;SDS011;6177;52.402;9.800;2023-07-22T17:02:06;5.25;;;3.67;;
12228;SDS011;6177;52.402;9.800;2023-07-22T17:04:56;3.88;;;3.67;;
12228;SDS011;6177;52.402;9.800;2023-07-22T17:07:48;3.47;;;3.22;;
12228;SDS011;6177;52.402;9.800;2023-07-22T17:10:39;5.53;;;5.20;;
12228;SDS011;6177;52.402;9.800;2023-07-22T17:13:30;4.05;;;3.58;;
12228;SDS011;6177;52.402;9.800;2023-07-22T17:16:20;4.20;;;3.65;;
12228;SDS011;6177;52.402;9.800;2023-07-22T17:19:12;4.18;;;3.83;;
12228;SDS011;6177;52.402;9.800;2023-07-22T17:22:03;4.45;;;4.07;;
12228;SDS011;6177;52.402;9.800;2023-07-22T17:24:53;3.88;;;3.72;;
12228;SDS011;6177;52.402;9.800;2023-07-22T17:27:45;3.95;;;3.75;;
12228;SDS011;6177;52.402;9.800;2023-07-22T17:30:36;4.45;;;4.15;;
12228;SDS011;6177;52.402;9.800;2023-07-22T17:33:27;3.92;;;3.65;;